Time;durP1;ratioP1;P1;durP2;ratioP2;P2;SDS_P1;SDS_P2;PMS_P1;PMS_P2;Temp;Humidity;BMP_temperature;BMP_pressure;BME280_temperature;BME280_humidity;BME280_pressure;Samples;Min_cycle;Max_cycle;Signal;HPM_P1;HPM_P2
2022/04/16 00:02:20;;;;;;;4.45;2.70;;;;;;;;;;5037268;28;20167;-80
2022/04/16 00:04:47;;;;;;;4.03;2.72;;;;;;;;;;5036273;28;20047;-80
2022/04/16 00:07:12;;;;;;;3.22;2.33;;;;;;;;;;5036294;28;20030;-80
2022/04/16 00:09:37;;;;;;;4.00;2.88;;;;;;;;;;5036964;28;20022;-80
2022/04/16 00:12:02;;;;;;;4.40;2.65;;;;;;;;;;5036512;28;20423;-80
2022/04/16 00:14:28;;;;;;;4.68;2.80;;;;;;;;;;5035177;28;20386;-80
2022/04/16 00:16:53;;;;;;;4.20;2.72;;;;;;;;;;5037411;28;20043;-81
2022/04/16 00:19:19;;;;;;;4.80;3.15;;;;;;;;;;5037166;28;20075;-80
2022/04/16 00:21:44;;;;;;;4.90;3.10;;;;;;;;;;5037191;28;20025;-81
2022/04/16 00:24:09;;;;;;;5.97;3.28;;;;;;;;;;5035938;28;20436;-80
2022/04/16 00:26:38;;;;;;;5.15;3.03;;;;;;;;;;5036623;28;20037;-79
2022/04/16 00:29:04;;;;;;;5.53;3.20;;;;;;;;;;5034590;28;20040;-80
2022/04/16 00:31:29;;;;;;;5.88;3.85;;;;;;;;;;5037127;28;20045;-80
2022/04/16 00:33:55;;;;;;;11.30;8.05;;;;;;;;;;5035887;28;20037;-81
2022/04/16 00:36:20;;;;;;;4.47;3.08;;;;;;;;;;5036325;28;20049;-80
2022/04/16 00:38:45;;;;;;;3.70;2.90;;;;;;;;;;5036985;28;20060;-79
2022/04/16 00:41:12;;;;;;;3.92;2.88;;;;;;;;;;5036055;28;20059;-80
2022/04/16 00:43:37;;;;;;;4.53;3.25;;;;;;;;;;5036534;28;20059;-80
2022/04/16 00:46:03;;;;;;;6.30;3.00;;;;;;;;;;5035879;28;20155;-80
2022/04/16 00:48:28;;;;;;;3.90;2.90;;;;;;;;;;5037240;28;20037;-80
2022/04/16 00:50:53;;;;;;;4.47;3.08;;;;;;;;;;5036371;28;20052;-80
2022/04/16 00:53:18;;;;;;;8.40;2.88;;;;;;;;;;5035893;28;20069;-80
2022/04/16 00:55:44;;;;;;;5.22;3.10;;;;;;;;;;5035300;28;20041;-80
2022/04/16 00:58:09;;;;;;;4.13;2.95;;;;;;;;;;5035064;28;20490;-80
2022/04/16 01:00:34;;;;;;;4.75;3.00;;;;;;;;;;5035361;28;20030;-79
2022/04/16 01:02:59;;;;;;;5.03;3.20;;;;;;;;;;5036138;28;20121;-80
2022/04/16 01:05:25;;;;;;;4.50;3.08;;;;;;;;;;5035292;28;20038;-79
2022/04/16 01:07:53;;;;;;;5.70;3.25;;;;;;;;;;5036666;28;20072;-80
2022/04/16 01:10:19;;;;;;;5.38;3.15;;;;;;;;;;5036757;28;20038;-79
2022/04/16 01:12:44;;;;;;;3.90;3.00;;;;;;;;;;5034732;28;20180;-80
2022/04/16 01:15:11;;;;;;;4.20;2.92;;;;;;;;;;5034576;28;20036;-80
2022/04/16 01:17:36;;;;;;;5.50;4.13;;;;;;;;;;5035823;28;20041;-80
2022/04/16 01:20:01;;;;;;;4.75;3.70;;;;;;;;;;5036498;28;20042;-80
2022/04/16 01:22:27;;;;;;;4.40;3.35;;;;;;;;;;5035214;28;20032;-80
2022/04/16 01:24:52;;;;;;;3.75;3.10;;;;;;;;;;5035996;28;20502;-80
2022/04/16 01:27:18;;;;;;;4.65;3.50;;;;;;;;;;5036557;28;20087;-80
2022/04/16 01:29:44;;;;;;;6.10;4.38;;;;;;;;;;5035301;28;20155;-80
2022/04/16 01:32:09;;;;;;;4.63;3.70;;;;;;;;;;5035263;28;20113;-79
2022/04/16 01:34:35;;;;;;;5.40;3.50;;;;;;;;;;5035162;28;20032;-80
2022/04/16 01:37:02;;;;;;;6.03;3.70;;;;;;;;;;5035116;28;20030;-79
2022/04/16 01:39:27;;;;;;;4.88;3.80;;;;;;;;;;5035906;28;20125;-80
2022/04/16 01:41:52;;;;;;;6.90;3.38;;;;;;;;;;5036020;28;20064;-79
2022/04/16 01:44:18;;;;;;;4.10;3.20;;;;;;;;;;5036630;28;20037;-80
2022/04/16 01:46:43;;;;;;;5.00;4.07;;;;;;;;;;5022253;28;20025;-79
2022/04/16 01:49:10;;;;;;;3.85;3.30;;;;;;;;;;5039996;28;20098;-80
2022/04/16 01:51:35;;;;;;;5.22;4.20;;;;;;;;;;5040337;28;20129;-80
2022/04/16 01:54:00;;;;;;;4.50;3.70;;;;;;;;;;5021429;28;20056;-79
2022/04/16 01:56:26;;;;;;;5.30;4.30;;;;;;;;;;5039361;28;20041;-80
2022/04/16 01:58:51;;;;;;;4.80;3.85;;;;;;;;;;5038634;28;20038;-79
2022/04/16 02:01:18;;;;;;;4.72;3.58;;;;;;;;;;5039752;28;20056;-79
2022/04/16 02:03:43;;;;;;;4.28;3.47;;;;;;;;;;5039209;28;20046;-79
2022/04/16 02:06:08;;;;;;;5.22;3.35;;;;;;;;;;5038311;28;20072;-80
2022/04/16 02:08:33;;;;;;;6.15;3.67;;;;;;;;;;5040226;28;20087;-79
2022/04/16 02:10:58;;;;;;;4.53;3.35;;;;;;;;;;5038730;28;20524;-80
2022/04/16 02:13:24;;;;;;;4.43;3.30;;;;;;;;;;5039616;28;20045;-80
2022/04/16 02:15:49;;;;;;;4.20;3.22;;;;;;;;;;5038628;28;20025;-81
2022/04/16 02:18:14;;;;;;;4.45;3.25;;;;;;;;;;5021152;28;20033;-80
2022/04/16 02:20:42;;;;;;;4.18;3.15;;;;;;;;;;5039516;28;20029;-80
2022/04/16 02:23:09;;;;;;;4.40;3.45;;;;;;;;;;5039760;28;20106;-80
2022/04/16 02:25:34;;;;;;;4.82;3.50;;;;;;;;;;5038794;28;20501;-79
2022/04/16 02:28:00;;;;;;;5.25;3.50;;;;;;;;;;5039287;28;20041;-80
2022/04/16 02:30:25;;;;;;;4.45;3.40;;;;;;;;;;5039628;28;20087;-80
2022/04/16 02:32:53;;;;;;;4.50;3.25;;;;;;;;;;5037513;28;20510;-80
2022/04/16 02:35:19;;;;;;;3.78;3.00;;;;;;;;;;5038013;28;20509;-79
2022/04/16 02:37:44;;;;;;;4.20;3.20;;;;;;;;;;5036277;28;20100;-80
2022/04/16 02:40:09;;;;;;;4.10;3.25;;;;;;;;;;5034926;28;20044;-81
2022/04/16 02:42:34;;;;;;;4.75;3.60;;;;;;;;;;5035078;28;20030;-80
2022/04/16 02:47:43;;;;;;;4.22;3.30;;;;;;;;;;5034977;28;20037;-81
2022/04/16 02:50:09;;;;;;;4.40;3.20;;;;;;;;;;5034860;28;20029;-81
2022/04/16 02:52:34;;;;;;;4.78;3.33;;;;;;;;;;5033741;28;20405;-80
2022/04/16 02:55:00;;;;;;;5.00;3.65;;;;;;;;;;5034624;28;20061;-81
2022/04/16 02:57:25;;;;;;;4.95;3.47;;;;;;;;;;5034380;28;20038;-80
2022/04/16 02:59:52;;;;;;;5.72;3.42;;;;;;;;;;5035139;28;20033;-80
2022/04/16 03:02:18;;;;;;;4.72;3.20;;;;;;;;;;5033497;28;20029;-80
2022/04/16 03:04:43;;;;;;;5.05;3.45;;;;;;;;;;5033661;28;20109;-80
2022/04/16 03:07:08;;;;;;;4.55;3.10;;;;;;;;;;5034628;28;20045;-80
2022/04/16 03:09:34;;;;;;;4.88;3.60;;;;;;;;;;5034660;28;20113;-80
2022/04/16 03:11:59;;;;;;;4.68;3.42;;;;;;;;;;5034378;28;20045;-80
2022/04/16 03:19:52;;;;;;;;;;;;;;;;;;5035176;28;20033;-80
2022/04/16 03:22:17;;;;;;;4.28;3.40;;;;;;;;;;5034806;28;20270;-81
2022/04/16 03:24:42;;;;;;;5.13;3.70;;;;;;;;;;5032489;28;20120;-80
2022/04/16 03:27:08;;;;;;;4.75;3.50;;;;;;;;;;5034346;28;20025;-81
2022/04/16 03:29:34;;;;;;;5.03;3.85;;;;;;;;;;5034221;28;20497;-80
2022/04/16 03:31:59;;;;;;;4.97;3.70;;;;;;;;;;5034069;28;20052;-80
2022/04/16 03:34:24;;;;;;;5.32;3.83;;;;;;;;;;5031987;28;20136;-80
2022/04/16 03:36:50;;;;;;;5.20;3.72;;;;;;;;;;5033734;28;20042;-80
2022/04/16 03:39:15;;;;;;;5.20;3.80;;;;;;;;;;5034208;28;20120;-80
2022/04/16 03:41:41;;;;;;;4.97;3.88;;;;;;;;;;5033358;28;20084;-80
2022/04/16 03:44:06;;;;;;;5.07;3.80;;;;;;;;;;5032371;28;20485;-80
2022/04/16 03:46:32;;;;;;;4.90;3.60;;;;;;;;;;5033763;28;20076;-80
2022/04/16 03:48:59;;;;;;;5.45;4.00;;;;;;;;;;5034319;28;20037;-80
2022/04/16 03:51:26;;;;;;;5.40;3.97;;;;;;;;;;5034250;28;20073;-80
2022/04/16 03:53:51;;;;;;;5.13;3.50;;;;;;;;;;5033519;28;20025;-80
2022/04/16 04:01:45;;;;;;;3.90;3.22;;;;;;;;;;5032242;28;20641;-80
2022/04/16 04:04:10;;;;;;;5.50;3.60;;;;;;;;;;5033348;28;20083;-80
2022/04/16 04:06:36;;;;;;;5.10;3.35;;;;;;;;;;5033318;28;20405;-80
2022/04/16 04:09:01;;;;;;;5.07;3.47;;;;;;;;;;5033302;28;20508;-80
2022/04/16 04:11:26;;;;;;;4.75;3.55;;;;;;;;;;5033659;28;20541;-80
2022/04/16 04:13:51;;;;;;;5.68;4.00;;;;;;;;;;5032081;28;20401;-80
2022/04/16 04:16:19;;;;;;;4.95;3.80;;;;;;;;;;5032784;28;20039;-81
2022/04/16 04:18:44;;;;;;;5.40;4.05;;;;;;;;;;5033617;28;20033;-80
2022/04/16 04:21:09;;;;;;;4.95;3.80;;;;;;;;;;5033397;28;20033;-80
2022/04/16 04:23:35;;;;;;;5.85;4.00;;;;;;;;;;5031739;28;20044;-80
2022/04/16 04:26:00;;;;;;;4.85;3.63;;;;;;;;;;5032557;28;20026;-80
2022/04/16 04:28:25;;;;;;;5.45;4.22;;;;;;;;;;5031975;28;20418;-80
2022/04/16 04:30:50;;;;;;;4.90;3.60;;;;;;;;;;5032172;28;20099;-80
2022/04/16 04:33:16;;;;;;;4.88;3.33;;;;;;;;;;5033163;28;20120;-80
2022/04/16 04:35:41;;;;;;;5.22;3.67;;;;;;;;;;5032673;28;20029;-80
2022/04/16 04:38:06;;;;;;;6.55;4.20;;;;;;;;;;5033687;28;20497;-80
2022/04/16 04:40:31;;;;;;;6.63;4.03;;;;;;;;;;5033412;28;20119;-80
2022/04/16 04:42:57;;;;;;;5.93;4.00;;;;;;;;;;5033235;28;20040;-80
2022/04/16 04:45:24;;;;;;;4.68;3.80;;;;;;;;;;5032992;28;20030;-80
2022/04/16 04:47:50;;;;;;;4.63;3.72;;;;;;;;;;5033280;28;20087;-80
2022/04/16 04:50:15;;;;;;;4.97;3.78;;;;;;;;;;5033184;28;20495;-81
2022/04/16 04:52:40;;;;;;;5.07;3.80;;;;;;;;;;5031796;28;20416;-80
2022/04/16 04:55:05;;;;;;;5.45;4.25;;;;;;;;;;5031029;28;20029;-80
2022/04/16 04:57:31;;;;;;;5.65;4.10;;;;;;;;;;5031599;28;20048;-79
2022/04/16 04:59:56;;;;;;;7.57;4.80;;;;;;;;;;5031586;28;20095;-81
2022/04/16 05:02:21;;;;;;;7.30;4.55;;;;;;;;;;5033142;28;20112;-80
2022/04/16 05:04:46;;;;;;;7.93;4.32;;;;;;;;;;5032602;28;20209;-80
2022/04/16 05:07:12;;;;;;;5.55;4.03;;;;;;;;;;5032622;28;20052;-80
2022/04/16 05:09:37;;;;;;;6.32;4.28;;;;;;;;;;5032797;28;20025;-81
2022/04/16 05:12:02;;;;;;;5.97;4.10;;;;;;;;;;5032512;28;20045;-80
2022/04/16 05:14:27;;;;;;;7.55;3.90;;;;;;;;;;5030998;28;20118;-80
2022/04/16 05:16:52;;;;;;;6.65;4.50;;;;;;;;;;5014971;28;20033;-81
2022/04/16 05:19:18;;;;;;;5.57;4.15;;;;;;;;;;5034608;28;20402;-80
2022/04/16 05:21:43;;;;;;;5.95;4.22;;;;;;;;;;5036972;28;20029;-80
2022/04/16 05:24:08;;;;;;;7.03;4.40;;;;;;;;;;5034726;28;20237;-80
2022/04/16 05:26:34;;;;;;;5.55;4.18;;;;;;;;;;5036609;28;20086;-80
2022/04/16 05:28:59;;;;;;;5.85;4.38;;;;;;;;;;5035388;28;20074;-80
2022/04/16 05:31:26;;;;;;;5.80;4.45;;;;;;;;;;5036242;28;20049;-80
2022/04/16 05:36:35;;;;;;;5.85;4.40;;;;;;;;;;5036658;28;20444;-80
2022/04/16 05:39:02;;;;;;;6.22;4.25;;;;;;;;;;5035515;28;20076;-80
2022/04/16 05:41:27;;;;;;;5.40;4.30;;;;;;;;;;5034876;28;20029;-80
2022/04/16 05:43:53;;;;;;;6.38;4.68;;;;;;;;;;5034883;28;20375;-79
2022/04/16 05:46:18;;;;;;;5.65;4.13;;;;;;;;;;5035635;28;20040;-81
2022/04/16 05:48:43;;;;;;;7.47;4.80;;;;;;;;;;5035676;28;20076;-80
2022/04/16 05:51:09;;;;;;;5.53;4.45;;;;;;;;;;5036600;28;20025;-80
2022/04/16 05:53:34;;;;;;;5.90;4.53;;;;;;;;;;5036007;28;20029;-80
2022/04/16 05:55:59;;;;;;;6.15;4.55;;;;;;;;;;5035702;28;20033;-80
2022/04/16 05:58:24;;;;;;;5.70;4.60;;;;;;;;;;5036417;28;20041;-80
2022/04/16 06:00:50;;;;;;;5.47;4.22;;;;;;;;;;5035433;28;20494;-81
2022/04/16 06:03:15;;;;;;;6.55;4.70;;;;;;;;;;5036354;28;20074;-81
2022/04/16 06:05:40;;;;;;;5.55;4.28;;;;;;;;;;5036422;28;20037;-81
2022/04/16 06:08:05;;;;;;;5.32;4.15;;;;;;;;;;5036069;28;20406;-79
2022/04/16 06:10:31;;;;;;;6.18;4.35;;;;;;;;;;5036123;28;20034;-80
2022/04/16 06:12:56;;;;;;;5.93;4.38;;;;;;;;;;5034671;28;20414;-80
2022/04/16 06:15:22;;;;;;;7.88;5.00;;;;;;;;;;5034916;28;20055;-80
2022/04/16 06:17:47;;;;;;;6.97;5.25;;;;;;;;;;5035908;28;20033;-80
2022/04/16 06:20:12;;;;;;;6.32;4.40;;;;;;;;;;5017833;28;20041;-80
2022/04/16 06:22:38;;;;;;;6.10;4.82;;;;;;;;;;5035801;28;20040;-81
2022/04/16 06:25:04;;;;;;;8.15;4.68;;;;;;;;;;5033341;28;20557;-81
2022/04/16 06:27:29;;;;;;;7.40;5.45;;;;;;;;;;5035227;28;20037;-80
2022/04/16 06:29:54;;;;;;;6.63;4.70;;;;;;;;;;5034026;28;20125;-81
2022/04/16 06:32:19;;;;;;;6.90;4.88;;;;;;;;;;5034440;28;20037;-80
2022/04/16 06:34:47;;;;;;;7.47;4.97;;;;;;;;;;5017422;28;20490;-80
2022/04/16 06:37:13;;;;;;;5.68;4.30;;;;;;;;;;5034971;28;20448;-80
2022/04/16 06:39:38;;;;;;;6.80;4.50;;;;;;;;;;5033825;28;20049;-81
2022/04/16 06:42:03;;;;;;;7.13;4.30;;;;;;;;;;5035415;28;20047;-81
2022/04/16 06:44:31;;;;;;;7.03;4.78;;;;;;;;;;5033439;28;20041;-80
2022/04/16 06:46:56;;;;;;;7.53;4.88;;;;;;;;;;5033626;28;20061;-81
2022/04/16 06:49:22;;;;;;;6.38;4.53;;;;;;;;;;5033704;28;20065;-81
2022/04/16 06:51:47;;;;;;;6.35;4.70;;;;;;;;;;5035360;28;20029;-80
2022/04/16 06:54:12;;;;;;;6.78;4.78;;;;;;;;;;5034661;28;20477;-81
2022/04/16 06:56:37;;;;;;;6.90;4.32;;;;;;;;;;5035051;28;20029;-81
2022/04/16 06:59:03;;;;;;;7.25;4.90;;;;;;;;;;5033499;28;20078;-80
2022/04/16 07:01:28;;;;;;;7.32;4.80;;;;;;;;;;5034663;28;20049;-81
2022/04/16 07:03:53;;;;;;;6.63;4.88;;;;;;;;;;5035199;28;20064;-81
2022/04/16 07:06:19;;;;;;;7.05;5.20;;;;;;;;;;5034192;28;20041;-80
2022/04/16 07:08:44;;;;;;;6.13;4.72;;;;;;;;;;5034735;28;20036;-81
2022/04/16 07:11:09;;;;;;;6.70;4.75;;;;;;;;;;5043319;28;20060;-82
2022/04/16 07:13:34;;;;;;;6.90;4.45;;;;;;;;;;5047126;28;20128;-82
2022/04/16 07:16:00;;;;;;;6.70;4.70;;;;;;;;;;5045501;28;20064;-82
2022/04/16 07:18:25;;;;;;;6.88;4.72;;;;;;;;;;5045190;28;20037;-81
2022/04/16 07:20:50;;;;;;;6.72;4.60;;;;;;;;;;5043376;28;20033;-81
2022/04/16 07:23:15;;;;;;;6.72;4.70;;;;;;;;;;5041374;28;20093;-86
2022/04/16 07:25:41;;;;;;;9.32;5.00;;;;;;;;;;5034561;28;20506;-82
2022/04/16 07:28:06;;;;;;;7.18;5.13;;;;;;;;;;5034517;28;20037;-82
2022/04/16 07:30:31;;;;;;;8.77;4.90;;;;;;;;;;5031261;28;20029;-80
2022/04/16 07:32:57;;;;;;;6.78;5.07;;;;;;;;;;5033289;28;20104;-81
2022/04/16 07:35:23;;;;;;;8.10;4.90;;;;;;;;;;5032341;28;20084;-81
2022/04/16 07:37:48;;;;;;;6.82;4.80;;;;;;;;;;5032305;28;20095;-81
2022/04/16 07:40:13;;;;;;;5.78;4.30;;;;;;;;;;5031116;28;20033;-80
2022/04/16 07:42:39;;;;;;;8.07;5.30;;;;;;;;;;5032096;28;20083;-80
2022/04/16 07:45:04;;;;;;;7.50;4.80;;;;;;;;;;5032063;28;20033;-80
2022/04/16 07:47:29;;;;;;;7.28;5.20;;;;;;;;;;5032732;28;20091;-80
2022/04/16 07:49:54;;;;;;;8.40;6.05;;;;;;;;;;5031670;28;20112;-80
2022/04/16 07:52:20;;;;;;;7.22;5.20;;;;;;;;;;5031933;28;20422;-80
2022/04/16 07:54:45;;;;;;;6.78;5.00;;;;;;;;;;5033176;28;20033;-80
2022/04/16 07:57:13;;;;;;;7.07;5.00;;;;;;;;;;5032048;28;20040;-80
2022/04/16 07:59:38;;;;;;;6.85;5.00;;;;;;;;;;5032054;28;20040;-80
2022/04/16 08:02:04;;;;;;;8.10;5.53;;;;;;;;;;5031370;28;20033;-80
2022/04/16 08:04:29;;;;;;;7.32;5.55;;;;;;;;;;5027839;28;20045;-80
2022/04/16 08:06:54;;;;;;;8.00;5.20;;;;;;;;;;5031680;28;20155;-80
2022/04/16 08:09:19;;;;;;;7.05;5.43;;;;;;;;;;5033106;28;20040;-80
2022/04/16 08:11:46;;;;;;;7.13;5.20;;;;;;;;;;5033814;28;20441;-80
2022/04/16 08:14:11;;;;;;;6.50;4.78;;;;;;;;;;5031590;28;20077;-80
2022/04/16 08:16:36;;;;;;;6.72;4.90;;;;;;;;;;5033260;28;20481;-80
2022/04/16 08:19:01;;;;;;;6.82;4.95;;;;;;;;;;5033492;28;20143;-81
2022/04/16 08:21:27;;;;;;;6.47;4.90;;;;;;;;;;5033588;28;20037;-80
2022/04/16 08:24:03;;;;;;;7.25;5.10;;;;;;;;;;5033467;28;20045;-80
2022/04/16 08:26:28;;;;;;;6.47;4.65;;;;;;;;;;5033581;28;20083;-80
2022/04/16 08:28:54;;;;;;;6.30;4.82;;;;;;;;;;5033523;28;20022;-80
2022/04/16 08:31:19;;;;;;;6.35;4.80;;;;;;;;;;5033625;28;20037;-80
2022/04/16 08:33:44;;;;;;;6.57;4.90;;;;;;;;;;5015739;28;20029;-80
2022/04/16 08:36:10;;;;;;;6.90;4.82;;;;;;;;;;5056567;22;21057;-84
2022/04/16 08:38:35;;;;;;;9.18;4.93;;;;;;;;;;5038720;28;20048;-84
2022/04/16 08:41:00;;;;;;;6.32;4.63;;;;;;;;;;5038651;28;20039;-86
2022/04/16 08:43:25;;;;;;;6.28;3.92;;;;;;;;;;5036720;28;20033;-84
2022/04/16 08:45:51;;;;;;;7.22;5.25;;;;;;;;;;5043673;28;20043;-84
2022/04/16 08:48:16;;;;;;;6.30;4.38;;;;;;;;;;5034380;28;20044;-84
2022/04/16 08:50:41;;;;;;;8.35;5.20;;;;;;;;;;5037558;28;20033;-85
2022/04/16 08:53:07;;;;;;;7.43;5.20;;;;;;;;;;5036178;28;20037;-86
2022/04/16 08:55:33;;;;;;;7.78;5.43;;;;;;;;;;5039938;28;20025;-86
2022/04/16 08:57:58;;;;;;;6.97;5.13;;;;;;;;;;5041632;28;20041;-86
2022/04/16 09:00:23;;;;;;;7.85;5.50;;;;;;;;;;5041336;28;20030;-84
2022/04/16 09:02:48;;;;;;;7.32;5.28;;;;;;;;;;5039846;28;20407;-84
2022/04/16 09:05:14;;;;;;;7.35;5.13;;;;;;;;;;5039847;28;20047;-86
2022/04/16 09:07:39;;;;;;;7.15;4.75;;;;;;;;;;5040837;28;20033;-86
2022/04/16 09:10:04;;;;;;;7.35;5.20;;;;;;;;;;5041010;28;20038;-86
2022/04/16 09:12:29;;;;;;;10.15;5.00;;;;;;;;;;5041838;28;20029;-85
2022/04/16 09:14:54;;;;;;;8.00;5.20;;;;;;;;;;5041158;28;20057;-84
2022/04/16 09:17:20;;;;;;;6.03;4.10;;;;;;;;;;5022083;28;20041;-83
2022/04/16 09:19:45;;;;;;;10.95;5.65;;;;;;;;;;5039345;28;20040;-87
2022/04/16 09:22:10;;;;;;;5.28;4.00;;;;;;;;;;5037851;28;20033;-84
2022/04/16 09:24:36;;;;;;;5.07;3.72;;;;;;;;;;5037586;28;20025;-86
2022/04/16 09:27:01;;;;;;;5.45;4.15;;;;;;;;;;5021301;28;20083;-83
2022/04/16 09:29:26;;;;;;;6.40;3.63;;;;;;;;;;5039785;28;20072;-85
2022/04/16 09:31:51;;;;;;;4.57;3.42;;;;;;;;;;5037985;28;20041;-84
2022/04/16 09:34:17;;;;;;;5.40;3.20;;;;;;;;;;5020998;28;20103;-86
2022/04/16 09:36:46;;;;;;;3.53;3.03;;;;;;;;;;5039119;28;20041;-86
2022/04/16 09:39:11;;;;;;;6.05;3.78;;;;;;;;;;5036894;28;20037;-86
2022/04/16 09:41:36;;;;;;;4.57;3.42;;;;;;;;;;5036357;28;20060;-85
2022/04/16 09:44:02;;;;;;;5.93;3.80;;;;;;;;;;5045241;28;20046;-84
2022/04/16 09:46:27;;;;;;;5.30;4.03;;;;;;;;;;5037653;28;20021;-83
2022/04/16 09:48:52;;;;;;;7.38;3.95;;;;;;;;;;5038731;28;20500;-84
2022/04/16 09:51:17;;;;;;;4.97;3.63;;;;;;;;;;5036178;28;20095;-85
2022/04/16 09:53:43;;;;;;;4.45;3.50;;;;;;;;;;5036071;28;20084;-82
2022/04/16 09:56:08;;;;;;;6.55;3.45;;;;;;;;;;5036568;28;20516;-84
2022/04/16 09:58:33;;;;;;;5.95;4.00;;;;;;;;;;5038934;28;20025;-86
2022/04/16 10:00:58;;;;;;;5.95;3.65;;;;;;;;;;5036020;28;20037;-84
2022/04/16 10:03:24;;;;;;;6.38;4.28;;;;;;;;;;5035388;28;20025;-87
2022/04/16 10:05:49;;;;;;;6.25;3.90;;;;;;;;;;5035317;28;20037;-85
2022/04/16 10:08:15;;;;;;;4.47;3.40;;;;;;;;;;5037298;28;20065;-83
2022/04/16 10:10:41;;;;;;;7.03;4.72;;;;;;;;;;5036769;28;20132;-84
2022/04/16 10:13:11;;;;;;;5.55;4.10;;;;;;;;;;5035088;28;20037;-84
2022/04/16 10:15:36;;;;;;;4.78;3.70;;;;;;;;;;5034800;28;20482;-84
2022/04/16 10:18:02;;;;;;;10.38;5.10;;;;;;;;;;5036803;28;20044;-84
2022/04/16 10:20:27;;;;;;;6.35;3.95;;;;;;;;;;5034784;28;20033;-82
2022/04/16 10:22:53;;;;;;;5.55;3.20;;;;;;;;;;5036801;28;20037;-85
2022/04/16 10:25:18;;;;;;;4.15;2.95;;;;;;;;;;5017481;28;20033;-86
2022/04/16 10:27:44;;;;;;;5.10;3.40;;;;;;;;;;5035793;28;20473;-85
2022/04/16 10:30:09;;;;;;;9.02;5.30;;;;;;;;;;5036579;28;20133;-86
2022/04/16 10:32:34;;;;;;;5.32;4.20;;;;;;;;;;5037038;28;20029;-85
2022/04/16 10:34:59;;;;;;;5.90;3.97;;;;;;;;;;5035205;28;20040;-84
2022/04/16 10:37:25;;;;;;;3.42;2.60;;;;;;;;;;5035397;28;20117;-84
2022/04/16 10:39:50;;;;;;;3.70;2.80;;;;;;;;;;5035788;28;20448;-85
2022/04/16 10:42:15;;;;;;;3.40;2.80;;;;;;;;;;5042524;28;20034;-87
2022/04/16 10:44:40;;;;;;;2.90;2.40;;;;;;;;;;5018847;28;20571;-86
2022/04/16 10:47:06;;;;;;;3.35;2.70;;;;;;;;;;5036542;28;20034;-86
2022/04/16 10:49:31;;;;;;;3.28;2.40;;;;;;;;;;5035802;28;20033;-84
2022/04/16 10:51:56;;;;;;;3.10;2.20;;;;;;;;;;5035422;28;20033;-86
2022/04/16 10:54:22;;;;;;;3.60;2.40;;;;;;;;;;5034799;28;20033;-85
2022/04/16 10:56:47;;;;;;;6.38;4.45;;;;;;;;;;5037161;28;20623;-85
2022/04/16 10:59:13;;;;;;;3.05;2.33;;;;;;;;;;5035337;28;20033;-84
2022/04/16 11:01:38;;;;;;;3.45;2.20;;;;;;;;;;5036064;28;20116;-86
2022/04/16 11:04:03;;;;;;;4.53;3.15;;;;;;;;;;5035232;28;20072;-86
2022/04/16 11:06:29;;;;;;;4.88;3.92;;;;;;;;;;5034905;28;20033;-85
2022/04/16 11:08:54;;;;;;;2.65;2.10;;;;;;;;;;5035940;28;20451;-85
2022/04/16 11:11:19;;;;;;;3.00;1.95;;;;;;;;;;5036360;28;20029;-84
2022/04/16 11:13:45;;;;;;;2.60;2.13;;;;;;;;;;5035372;28;20042;-85
2022/04/16 11:16:10;;;;;;;3.10;2.13;;;;;;;;;;5035084;28;20021;-86
2022/04/16 11:18:35;;;;;;;2.80;2.30;;;;;;;;;;5033431;28;20037;-85
2022/04/16 11:21:00;;;;;;;2.83;2.00;;;;;;;;;;5034504;28;20044;-85
2022/04/16 11:23:26;;;;;;;2.60;2.00;;;;;;;;;;5034605;28;20045;-84
2022/04/16 11:34:17;;;;;;;;;;;;;;;;;;5033031;28;20029;-84
2022/04/16 11:36:42;;;;;;;3.85;3.00;;;;;;;;;;5033481;28;20325;-84
2022/04/16 11:39:07;;;;;;;4.10;3.17;;;;;;;;;;5043257;28;20509;-85
2022/04/16 11:41:33;;;;;;;4.15;3.30;;;;;;;;;;5032411;28;20394;-85
2022/04/16 11:43:59;;;;;;;5.10;3.75;;;;;;;;;;5014817;28;20042;-85
2022/04/16 11:46:24;;;;;;;5.35;4.18;;;;;;;;;;5016210;28;20034;-84
2022/04/16 11:48:49;;;;;;;6.13;4.10;;;;;;;;;;5023800;28;20037;-84
2022/04/16 11:51:15;;;;;;;6.20;4.25;;;;;;;;;;5035014;28;20040;-84
2022/04/16 11:53:40;;;;;;;5.80;3.97;;;;;;;;;;5033247;28;20521;-83
2022/04/16 11:56:05;;;;;;;7.65;4.90;;;;;;;;;;5033574;28;20037;-85
2022/04/16 11:58:30;;;;;;;6.15;4.03;;;;;;;;;;5033938;28;20143;-84
2022/04/16 12:00:56;;;;;;;5.38;3.92;;;;;;;;;;5032847;28;20040;-84
2022/04/16 12:03:21;;;;;;;5.35;3.97;;;;;;;;;;5031295;28;20029;-84
2022/04/16 12:05:50;;;;;;;7.43;5.60;;;;;;;;;;5031921;28;20563;-83
2022/04/16 12:08:18;;;;;;;7.88;5.47;;;;;;;;;;5033473;28;20026;-84
2022/04/16 12:10:45;;;;;;;7.72;5.35;;;;;;;;;;5031751;28;20179;-84
2022/04/16 12:13:10;;;;;;;6.70;4.85;;;;;;;;;;5030892;28;20083;-84
2022/04/16 12:15:36;;;;;;;7.20;5.07;;;;;;;;;;5032098;28;20103;-86
2022/04/16 12:18:01;;;;;;;6.43;4.78;;;;;;;;;;5032993;28;20048;-85
2022/04/16 12:20:26;;;;;;;7.40;4.90;;;;;;;;;;5033792;28;20045;-84
2022/04/16 12:22:52;;;;;;;5.97;4.25;;;;;;;;;;5033489;28;20116;-82
2022/04/16 12:25:17;;;;;;;5.28;3.80;;;;;;;;;;5033840;28;20123;-84
2022/04/16 12:27:43;;;;;;;4.63;3.78;;;;;;;;;;5033262;28;20025;-84
2022/04/16 12:30:08;;;;;;;4.50;3.67;;;;;;;;;;5014871;28;20072;-85
2022/04/16 12:32:33;;;;;;;4.30;3.30;;;;;;;;;;5015149;28;20038;-84
2022/04/16 12:34:59;;;;;;;4.78;3.40;;;;;;;;;;4997977;28;20034;-83
2022/04/16 12:37:27;;;;;;;12.40;6.18;;;;;;;;;;5020171;28;20506;-81
2022/04/16 12:39:52;;;;;;;14.40;7.90;;;;;;;;;;5016239;28;20078;-85
2022/04/16 12:42:18;;;;;;;7.18;4.18;;;;;;;;;;4997648;28;20456;-82
2022/04/16 12:44:43;;;;;;;5.13;4.05;;;;;;;;;;4997808;28;20025;-84
2022/04/16 12:47:09;;;;;;;6.18;4.80;;;;;;;;;;5018767;28;20382;-82
2022/04/16 12:49:34;;;;;;;9.93;6.85;;;;;;;;;;5034801;28;20057;-84
2022/04/16 12:51:59;;;;;;;10.55;7.78;;;;;;;;;;5017076;28;20130;-82
2022/04/16 12:54:25;;;;;;;10.57;7.32;;;;;;;;;;5035621;28;20547;-82
2022/04/16 12:56:50;;;;;;;12.90;7.57;;;;;;;;;;5033875;28;20481;-85
2022/04/16 12:59:15;;;;;;;14.38;8.70;;;;;;;;;;5033846;28;20049;-83
2022/04/16 13:01:41;;;;;;;11.38;7.63;;;;;;;;;;5032694;28;20108;-82
2022/04/16 13:04:06;;;;;;;11.70;6.63;;;;;;;;;;5031752;28;20405;-84
2022/04/16 13:06:31;;;;;;;9.57;5.60;;;;;;;;;;5031229;28;20052;-84
2022/04/16 13:09:00;;;;;;;7.05;5.03;;;;;;;;;;5033562;28;20040;-83
2022/04/16 13:11:25;;;;;;;7.43;5.35;;;;;;;;;;5034116;28;20040;-83
2022/04/16 13:13:50;;;;;;;23.02;10.95;;;;;;;;;;5034586;28;20033;-84
2022/04/16 13:16:16;;;;;;;16.35;8.45;;;;;;;;;;5031847;28;20043;-84
2022/04/16 13:18:41;;;;;;;9.95;6.03;;;;;;;;;;5032997;28;20133;-83
2022/04/16 13:21:06;;;;;;;9.23;5.95;;;;;;;;;;5034151;28;20065;-83
2022/04/16 13:23:31;;;;;;;11.63;6.70;;;;;;;;;;5033719;28;20037;-83
2022/04/16 13:25:57;;;;;;;10.63;6.88;;;;;;;;;;5033406;28;20033;-84
2022/04/16 13:28:22;;;;;;;9.50;5.30;;;;;;;;;;5033663;28;20048;-85
2022/04/16 13:30:48;;;;;;;6.00;4.00;;;;;;;;;;5033239;28;20057;-85
2022/04/16 13:33:13;;;;;;;7.60;5.20;;;;;;;;;;5035424;28;20029;-84
2022/04/16 13:35:39;;;;;;;7.35;5.00;;;;;;;;;;5035572;28;20080;-85
2022/04/16 13:38:04;;;;;;;7.75;4.95;;;;;;;;;;5033509;28;20044;-84
2022/04/16 13:43:14;;;;;;;12.77;8.45;;;;;;;;;;5037047;28;20040;-84
2022/04/16 13:45:39;;;;;;;10.88;6.63;;;;;;;;;;5041094;28;20034;-84
2022/04/16 13:48:04;;;;;;;9.25;5.57;;;;;;;;;;5025648;28;20026;-85
2022/04/16 13:50:30;;;;;;;7.72;5.28;;;;;;;;;;5039486;28;20051;-84
2022/04/16 13:52:56;;;;;;;7.75;5.68;;;;;;;;;;5041829;28;20033;-86
2022/04/16 13:55:21;;;;;;;7.88;5.40;;;;;;;;;;5042571;28;20570;-86
2022/04/16 13:57:47;;;;;;;8.88;6.03;;;;;;;;;;5022459;28;20033;-86
2022/04/16 14:00:12;;;;;;;10.35;6.68;;;;;;;;;;5042501;28;20126;-86
2022/04/16 14:02:37;;;;;;;8.40;5.97;;;;;;;;;;5039047;28;20095;-85
2022/04/16 14:07:46;;;;;;;8.77;6.03;;;;;;;;;;5022062;28;20052;-86
2022/04/16 14:10:11;;;;;;;10.02;6.80;;;;;;;;;;5032384;28;20077;-86
2022/04/16 14:12:37;;;;;;;10.27;6.95;;;;;;;;;;5040150;28;20037;-87
2022/04/16 14:15:02;;;;;;;10.18;6.72;;;;;;;;;;5037217;28;20036;-86
2022/04/16 14:17:28;;;;;;;10.77;6.20;;;;;;;;;;5040085;28;20033;-83
2022/04/16 14:19:53;;;;;;;8.82;6.35;;;;;;;;;;5039256;28;20433;-86
2022/04/16 14:22:18;;;;;;;10.68;7.10;;;;;;;;;;5037258;28;20041;-85
2022/04/16 14:24:44;;;;;;;10.60;7.07;;;;;;;;;;5034836;28;20029;-83
2022/04/16 14:27:09;;;;;;;10.18;6.85;;;;;;;;;;5025036;28;20079;-83
2022/04/16 14:29:34;;;;;;;11.45;6.97;;;;;;;;;;5035152;28;20026;-83
2022/04/16 14:31:59;;;;;;;9.63;7.03;;;;;;;;;;5042171;28;20056;-85
2022/04/16 14:34:25;;;;;;;9.60;6.45;;;;;;;;;;5032616;28;20049;-86
2022/04/16 14:36:50;;;;;;;12.32;6.97;;;;;;;;;;5046951;23;20051;-82
2022/04/16 14:39:15;;;;;;;11.77;7.70;;;;;;;;;;5045742;28;20048;-82
2022/04/16 14:41:41;;;;;;;11.05;7.35;;;;;;;;;;5041783;28;20025;-81
2022/04/16 14:44:06;;;;;;;9.90;6.07;;;;;;;;;;5047075;28;20037;-83
2022/04/16 14:46:32;;;;;;;15.45;9.27;;;;;;;;;;5046847;28;20115;-83
2022/04/16 14:48:57;;;;;;;9.88;7.20;;;;;;;;;;5042971;28;20029;-82
2022/04/16 14:51:25;;;;;;;11.32;8.15;;;;;;;;;;5041679;28;20033;-84
2022/04/16 14:53:51;;;;;;;11.65;7.15;;;;;;;;;;5046181;28;20040;-82
2022/04/16 14:56:18;;;;;;;10.63;7.10;;;;;;;;;;5044597;28;20038;-83
2022/04/16 14:58:43;;;;;;;12.00;7.75;;;;;;;;;;5043774;28;20095;-83
2022/04/16 15:01:10;;;;;;;10.43;7.63;;;;;;;;;;5042883;28;20577;-82
2022/04/16 15:03:35;;;;;;;12.10;8.32;;;;;;;;;;5041724;28;20409;-82